createdAt,value
2022-09-09T00:02:09.742Z,9.07
2022-09-09T00:04:42.316Z,8.88
2022-09-09T00:07:15.398Z,8.77
2022-09-09T00:12:53.910Z,8.85
2022-09-09T00:15:27.694Z,9.13
2022-09-09T00:20:50.522Z,8.02
2022-09-09T00:23:30.895Z,8.95
2022-09-09T00:26:19.504Z,8.85
2022-09-09T00:28:59.400Z,8.15
2022-09-09T00:31:32.094Z,8.50
2022-09-09T00:34:29.001Z,7.77
2022-09-09T00:37:00.082Z,7.82
2022-09-09T00:39:38.388Z,7.38
2022-09-09T00:42:15.098Z,7.68
2022-09-09T00:45:16.580Z,7.78
2022-09-09T00:47:55.498Z,7.72
2022-09-09T00:50:50.518Z,6.10
2022-09-09T00:53:17.872Z,6.55
2022-09-09T00:55:56.923Z,6.80
2022-09-09T00:58:24.549Z,7.35
2022-09-09T01:00:57.758Z,7.15
2022-09-09T01:03:35.929Z,7.88
2022-09-09T01:06:27.475Z,7.15
2022-09-09T01:08:54.548Z,6.95
2022-09-09T01:11:46.661Z,6.72
2022-09-09T01:14:39.906Z,6.90
2022-09-09T01:17:13.487Z,7.03
2022-09-09T01:19:46.322Z,6.88
2022-09-09T01:25:11.401Z,6.20
2022-09-09T01:27:39.856Z,5.93
2022-09-09T01:30:12.829Z,6.30
2022-09-09T01:35:11.775Z,6.20
2022-09-09T01:37:38.931Z,6.53
2022-09-09T01:40:09.396Z,6.38
2022-09-09T01:42:38.982Z,6.35
2022-09-09T01:45:06.883Z,6.38
2022-09-09T01:47:37.015Z,6.63
2022-09-09T01:50:04.755Z,5.90
2022-09-09T01:52:34.180Z,7.10
2022-09-09T01:55:03.960Z,6.30
2022-09-09T01:57:45.720Z,6.85
2022-09-09T02:00:14.731Z,7.07
2022-09-09T02:03:15.721Z,6.78
2022-09-09T02:06:01.571Z,6.50
2022-09-09T02:08:38.781Z,5.93
2022-09-09T02:11:15.096Z,5.53
2022-09-09T02:13:48.285Z,6.30
2022-09-09T02:19:01.665Z,6.15
2022-09-09T02:21:31.445Z,5.80
2022-09-09T02:24:02.095Z,6.43
2022-09-09T02:26:29.711Z,6.43
2022-09-09T02:29:18.867Z,5.68
2022-09-09T02:31:50.872Z,5.75
2022-09-09T02:34:21.241Z,6.03
2022-09-09T02:36:54.863Z,6.25
2022-09-09T02:41:51.903Z,5.80
2022-09-09T02:44:21.505Z,6.13
2022-09-09T02:46:54.391Z,6.65
2022-09-09T02:49:33.943Z,5.85
2022-09-09T02:52:08.060Z,6.05
2022-09-09T02:54:49.194Z,6.22
2022-09-09T02:57:24.357Z,6.57
2022-09-09T02:59:52.333Z,6.53
2022-09-09T03:02:19.606Z,6.32
2022-09-09T03:04:46.870Z,7.35
2022-09-09T03:07:14.861Z,6.63
2022-09-09T03:09:42.075Z,6.53
2022-09-09T03:12:11.665Z,6.72
2022-09-09T03:14:39.893Z,6.57
2022-09-09T03:17:09.349Z,6.03
2022-09-09T03:19:36.386Z,6.90
2022-09-09T03:22:05.994Z,7.15
2022-09-09T03:24:35.509Z,6.85
2022-09-09T03:27:02.487Z,6.63
2022-09-09T03:29:29.919Z,6.45
2022-09-09T03:31:57.046Z,6.35
2022-09-09T03:34:24.092Z,5.80
2022-09-09T03:36:51.618Z,5.82
2022-09-09T03:39:18.773Z,6.30
2022-09-09T03:41:45.851Z,6.13
2022-09-09T03:44:13.336Z,5.95
2022-09-09T03:46:42.633Z,6.05
2022-09-09T03:49:09.644Z,6.68
2022-09-09T03:51:37.229Z,6.15
2022-09-09T03:54:08.935Z,6.30
2022-09-09T03:56:36.596Z,7.30
2022-09-09T03:59:06.483Z,6.95
2022-09-09T04:01:36.060Z,7.30
2022-09-09T04:04:03.354Z,6.85
2022-09-09T04:06:30.901Z,7.97
2022-09-09T04:08:57.952Z,5.78
2022-09-09T04:11:25.345Z,6.25
2022-09-09T04:13:52.924Z,5.80
2022-09-09T04:16:19.981Z,6.13
2022-09-09T04:18:47.553Z,5.85
2022-09-09T04:21:17.416Z,5.80
2022-09-09T04:23:45.143Z,5.78
2022-09-09T04:26:12.164Z,5.75
2022-09-09T04:28:43.995Z,6.40
2022-09-09T04:31:19.727Z,6.40
2022-09-09T04:33:48.013Z,6.57
2022-09-09T04:36:15.381Z,6.47
2022-09-09T04:38:42.645Z,9.60
2022-09-09T04:41:13.268Z,10.15
2022-09-09T04:43:40.636Z,8.45
2022-09-09T04:46:08.057Z,8.25
2022-09-09T04:48:38.120Z,7.90
2022-09-09T04:51:07.599Z,9.68
2022-09-09T04:53:35.347Z,11.20
2022-09-09T04:56:06.289Z,11.88
2022-09-09T04:58:37.063Z,12.38
2022-09-09T05:01:10.286Z,11.50
2022-09-09T05:03:38.169Z,12.15
2022-09-09T05:06:17.365Z,12.68
2022-09-09T05:08:47.421Z,11.30
2022-09-09T05:11:20.770Z,11.70
2022-09-09T05:16:15.940Z,12.95
2022-09-09T05:18:45.207Z,10.35
2022-09-09T05:21:14.002Z,8.60
2022-09-09T05:23:43.835Z,8.82
2022-09-09T05:26:17.497Z,8.15
2022-09-09T05:28:48.440Z,7.80
2022-09-09T05:31:21.945Z,6.53
2022-09-09T05:33:49.753Z,6.93
2022-09-09T05:36:23.614Z,6.10
2022-09-09T05:38:56.009Z,6.30
2022-09-09T05:41:23.231Z,5.82
2022-09-09T05:43:50.760Z,5.13
2022-09-09T05:46:22.531Z,5.07
2022-09-09T05:48:55.144Z,5.57
2022-09-09T05:51:27.603Z,5.60
2022-09-09T05:53:55.625Z,4.95
2022-09-09T05:56:25.488Z,4.70
2022-09-09T05:58:53.886Z,4.13
2022-09-09T06:01:26.862Z,4.00
2022-09-09T06:03:54.719Z,4.15
2022-09-09T06:06:27.301Z,4.13
2022-09-09T06:08:56.570Z,3.33
2022-09-09T06:11:30.902Z,3.95
2022-09-09T06:13:58.578Z,3.50
2022-09-09T06:16:27.918Z,3.33
2022-09-09T06:18:56.721Z,4.38
2022-09-09T06:21:35.351Z,4.47
2022-09-09T06:24:03.734Z,4.13
2022-09-09T06:26:35.128Z,3.10
2022-09-09T06:29:04.148Z,3.70
2022-09-09T06:31:34.169Z,3.30
2022-09-09T06:34:02.094Z,3.00
2022-09-09T06:36:34.668Z,2.70
2022-09-09T06:39:02.260Z,2.92
2022-09-09T06:41:31.787Z,2.83
2022-09-09T06:43:59.107Z,3.13
2022-09-09T06:46:29.413Z,2.83
2022-09-09T06:48:58.083Z,2.70
2022-09-09T06:51:26.969Z,2.40
2022-09-09T06:54:01.057Z,2.20
2022-09-09T06:56:36.447Z,2.30
2022-09-09T06:59:09.076Z,2.50
2022-09-09T07:01:42.043Z,3.20
2022-09-09T07:04:09.607Z,2.00
2022-09-09T07:06:39.180Z,1.88
2022-09-09T07:09:08.918Z,1.90
2022-09-09T07:11:43.748Z,1.80
2022-09-09T07:14:13.822Z,2.40
2022-09-09T07:16:42.610Z,2.25
2022-09-09T07:19:10.603Z,2.20
2022-09-09T07:21:38.195Z,2.70
2022-09-09T07:24:05.773Z,2.65
2022-09-09T07:26:33.099Z,2.20
2022-09-09T07:29:03.559Z,2.67
2022-09-09T07:31:36.832Z,2.30
2022-09-09T07:34:05.319Z,2.60
2022-09-09T07:36:37.249Z,2.22
2022-09-09T07:39:10.791Z,2.20
2022-09-09T07:41:41.651Z,2.40
2022-09-09T07:44:13.820Z,2.17
2022-09-09T07:46:42.002Z,1.85
2022-09-09T07:49:09.853Z,2.53
2022-09-09T07:51:39.817Z,2.10
2022-09-09T07:54:14.206Z,2.28
2022-09-09T07:56:42.884Z,2.10
2022-09-09T07:59:10.738Z,2.53
2022-09-09T08:01:47.104Z,2.42
2022-09-09T08:04:18.946Z,2.70
2022-09-09T08:06:57.466Z,3.67
2022-09-09T08:09:26.036Z,3.20
2022-09-09T08:11:55.675Z,2.85
2022-09-09T08:14:22.998Z,2.75
2022-09-09T08:16:54.991Z,2.50
2022-09-09T08:19:24.894Z,2.60
2022-09-09T08:21:52.418Z,2.30
2022-09-09T08:24:19.545Z,2.50
2022-09-09T08:26:49.214Z,2.55
2022-09-09T08:29:21.657Z,2.70
2022-09-09T08:31:51.289Z,2.92
2022-09-09T08:34:19.579Z,2.30
2022-09-09T08:36:47.911Z,2.08
2022-09-09T08:39:17.742Z,2.30
2022-09-09T08:42:26.847Z,2.55
2022-09-09T08:45:22.203Z,2.60
2022-09-09T08:48:31.241Z,2.90
2022-09-09T08:50:58.502Z,3.78
2022-09-09T08:53:30.906Z,3.60
2022-09-09T08:56:00.436Z,3.10
2022-09-09T08:58:29.862Z,3.22
2022-09-09T09:01:02.942Z,4.10
2022-09-09T09:03:49.029Z,3.60
2022-09-09T09:06:31.539Z,3.03
2022-09-09T09:09:03.764Z,2.42
2022-09-09T09:11:57.641Z,3.10
2022-09-09T09:14:26.497Z,2.40
2022-09-09T09:17:00.849Z,2.10
2022-09-09T09:19:30.904Z,2.40
2022-09-09T09:22:17.460Z,2.40
2022-09-09T09:24:56.923Z,1.90
2022-09-09T09:27:44.698Z,1.90
2022-09-09T09:30:27.144Z,2.00
2022-09-09T09:33:06.571Z,1.70
2022-09-09T09:35:44.410Z,1.60
2022-09-09T09:41:11.548Z,1.70
2022-09-09T09:43:41.760Z,2.10
2022-09-09T09:46:23.757Z,1.85
2022-09-09T09:49:03.127Z,1.80
2022-09-09T09:51:32.084Z,1.88
2022-09-09T09:54:34.659Z,3.75
2022-09-09T09:57:17.479Z,3.15
2022-09-09T09:59:44.935Z,2.00
2022-09-09T10:02:38.764Z,1.98
2022-09-09T10:05:26.488Z,1.83
2022-09-09T10:08:15.269Z,1.80
2022-09-09T10:11:07.528Z,2.17
2022-09-09T10:13:59.586Z,2.17
2022-09-09T10:16:45.305Z,1.80
2022-09-09T10:19:21.360Z,2.08
2022-09-09T10:22:19.551Z,1.70
2022-09-09T10:25:05.196Z,1.88
2022-09-09T10:27:57.907Z,2.10
2022-09-09T10:30:42.231Z,1.50
2022-09-09T10:33:24.193Z,1.80
2022-09-09T10:36:13.005Z,1.50
2022-09-09T10:38:45.010Z,1.73
2022-09-09T10:41:17.998Z,2.10
2022-09-09T10:44:18.541Z,2.10
2022-09-09T10:46:45.522Z,3.58
2022-09-09T10:49:28.008Z,2.30
2022-09-09T10:52:14.589Z,2.20
2022-09-09T10:54:57.594Z,2.10
2022-09-09T10:57:45.958Z,2.10
2022-09-09T11:07:12.230Z,5.25
2022-09-09T11:09:46.117Z,2.55
2022-09-09T11:12:19.521Z,1.90
2022-09-09T11:14:58.689Z,2.35
2022-09-09T11:17:34.706Z,4.25
2022-09-09T11:20:02.231Z,4.18
2022-09-09T11:22:35.313Z,2.30
2022-09-09T11:25:18.061Z,2.85
2022-09-09T11:28:01.671Z,2.65
2022-09-09T11:30:57.040Z,3.08
2022-09-09T11:33:51.711Z,2.97
2022-09-09T11:36:37.825Z,2.55
2022-09-09T11:39:18.914Z,1.88
2022-09-09T11:41:48.536Z,2.70
2022-09-09T11:44:29.812Z,2.00
2022-09-09T11:46:57.228Z,2.10
2022-09-09T11:49:30.660Z,2.30
2022-09-09T11:51:58.066Z,2.83
2022-09-09T11:54:34.723Z,2.88
2022-09-09T11:57:17.524Z,2.20
2022-09-09T11:59:55.010Z,2.80
2022-09-09T12:02:30.109Z,2.70
2022-09-09T12:05:08.383Z,2.65
2022-09-09T12:07:38.485Z,2.40
2022-09-09T12:10:53.197Z,1.88
2022-09-09T12:13:23.036Z,2.53
2022-09-09T12:15:52.315Z,3.10
2022-09-09T12:18:40.461Z,2.55
2022-09-09T12:21:34.993Z,2.58
2022-09-09T12:24:11.510Z,2.30
2022-09-09T12:26:48.541Z,3.15
2022-09-09T12:29:33.831Z,2.95
2022-09-09T12:32:25.037Z,2.58
2022-09-09T12:34:57.205Z,3.15
2022-09-09T12:37:41.108Z,2.72
2022-09-09T12:40:21.324Z,2.53
2022-09-09T12:42:49.180Z,2.50
2022-09-09T12:45:26.211Z,1.98
2022-09-09T12:48:02.445Z,1.95
2022-09-09T12:50:33.223Z,3.53
2022-09-09T12:53:11.000Z,5.30
2022-09-09T12:55:40.331Z,2.50
2022-09-09T12:58:08.153Z,2.00
2022-09-09T13:00:35.758Z,2.25
2022-09-09T13:03:17.153Z,2.00
2022-09-09T13:05:44.574Z,2.40
2022-09-09T13:08:13.706Z,1.98
2022-09-09T13:11:01.879Z,2.30
2022-09-09T13:13:40.473Z,2.50
2022-09-09T13:16:21.345Z,2.28
2022-09-09T13:18:53.877Z,2.92
2022-09-09T13:21:31.794Z,2.63
2022-09-09T13:23:59.247Z,2.13
2022-09-09T13:26:27.905Z,2.20
2022-09-09T13:28:55.817Z,2.70
2022-09-09T13:31:34.609Z,2.40
2022-09-09T13:34:13.000Z,2.22
2022-09-09T13:36:41.499Z,2.22
2022-09-09T13:39:19.352Z,2.42
2022-09-09T13:41:48.200Z,2.42
2022-09-09T13:44:28.141Z,2.00
2022-09-09T13:47:18.895Z,2.38
2022-09-09T13:49:46.325Z,2.45
2022-09-09T13:52:15.959Z,2.30
2022-09-09T13:54:48.226Z,2.42
2022-09-09T13:57:19.037Z,2.03
2022-09-09T14:00:04.082Z,2.40
2022-09-09T14:02:33.706Z,2.03
2022-09-09T14:05:01.607Z,2.42
2022-09-09T14:07:28.882Z,2.33
2022-09-09T14:09:56.598Z,2.10
2022-09-09T14:12:33.109Z,2.60
2022-09-09T14:15:00.843Z,2.03
2022-09-09T14:17:28.036Z,1.90
2022-09-09T14:19:55.600Z,2.25
2022-09-09T14:22:23.589Z,2.22
2022-09-09T14:24:50.987Z,3.03
2022-09-09T14:27:20.533Z,2.25
2022-09-09T14:29:52.568Z,2.83
2022-09-09T14:32:21.798Z,4.35
2022-09-09T14:34:49.527Z,2.63
2022-09-09T14:37:17.853Z,2.20
2022-09-09T14:39:45.610Z,1.90
2022-09-09T14:42:13.060Z,2.05
2022-09-09T14:44:40.295Z,2.17
2022-09-09T14:47:07.761Z,2.05
2022-09-09T14:49:36.853Z,1.98
2022-09-09T14:52:05.405Z,2.40
2022-09-09T14:54:34.809Z,2.10
2022-09-09T14:57:02.347Z,1.88
2022-09-09T14:59:29.399Z,2.75
2022-09-09T15:01:56.629Z,2.63
2022-09-09T15:04:24.452Z,2.33
2022-09-09T15:06:51.485Z,3.03
2022-09-09T15:09:18.498Z,2.80
2022-09-09T15:11:46.113Z,2.70
2022-09-09T15:14:22.306Z,3.10
2022-09-09T15:16:52.856Z,2.72
2022-09-09T15:19:19.931Z,2.40
2022-09-09T15:21:50.450Z,2.70
2022-09-09T15:24:19.853Z,2.58
2022-09-09T15:26:47.785Z,2.90
2022-09-09T15:29:14.866Z,3.08
2022-09-09T15:31:44.499Z,3.00
2022-09-09T15:34:14.108Z,4.07
2022-09-09T15:36:43.886Z,4.13
2022-09-09T15:39:14.073Z,3.55
2022-09-09T15:41:41.631Z,2.92
2022-09-09T15:44:08.971Z,3.17
2022-09-09T15:46:42.418Z,3.45
2022-09-09T15:49:26.698Z,3.28
2022-09-09T15:51:56.389Z,2.65
2022-09-09T15:54:24.904Z,3.20
2022-09-09T15:56:58.094Z,2.42
2022-09-09T15:59:27.887Z,2.42
2022-09-09T16:01:57.571Z,2.97
2022-09-09T16:04:28.495Z,3.17
2022-09-09T16:07:06.738Z,2.38
2022-09-09T16:09:36.573Z,2.28
2022-09-09T16:12:06.983Z,2.50
2022-09-09T16:14:34.610Z,2.83
2022-09-09T16:17:01.823Z,2.42
2022-09-09T16:19:29.371Z,3.05
2022-09-09T16:21:59.528Z,2.45
2022-09-09T16:24:27.671Z,2.15
2022-09-09T16:26:56.032Z,2.58
2022-09-09T16:29:23.972Z,2.22
2022-09-09T16:31:51.356Z,2.35
2022-09-09T17:41:00.985Z,2.83
2022-09-09T17:43:28.858Z,18.15
2022-09-09T17:45:55.869Z,7.68
2022-09-09T17:48:22.883Z,5.60
2022-09-09T17:50:58.980Z,3.20
2022-09-09T17:53:28.845Z,3.95
2022-09-09T17:56:02.105Z,4.10
2022-09-09T17:58:29.094Z,8.35
2022-09-09T18:00:56.520Z,12.73
2022-09-09T18:03:23.581Z,18.73
2022-09-09T18:05:50.579Z,8.05
2022-09-09T18:08:18.232Z,5.90
2022-09-09T18:10:53.193Z,6.97
2022-09-09T18:13:23.901Z,8.38
2022-09-09T18:15:50.940Z,7.97
2022-09-09T18:18:20.532Z,8.52
2022-09-09T18:20:57.542Z,3.67
2022-09-09T18:23:24.574Z,3.70
2022-09-09T18:25:57.110Z,3.33
2022-09-09T18:28:27.225Z,3.00
2022-09-09T18:30:54.823Z,3.88
2022-09-09T18:33:24.342Z,3.65
2022-09-09T18:35:51.863Z,3.90
2022-09-09T18:38:19.394Z,3.80
2022-09-09T18:40:46.415Z,3.63
2022-09-09T18:43:13.662Z,3.50
2022-09-09T18:45:41.075Z,2.60
2022-09-09T18:48:08.357Z,2.20
2022-09-09T18:50:35.373Z,3.17
2022-09-09T18:53:03.463Z,3.17
2022-09-09T18:55:30.620Z,3.90
2022-09-09T18:57:57.895Z,3.40
2022-09-09T19:00:26.129Z,2.85
2022-09-09T19:02:53.442Z,3.05
2022-09-09T19:05:24.229Z,2.95
2022-09-09T19:07:51.756Z,3.20
2022-09-09T19:10:23.682Z,3.20
2022-09-09T19:12:50.953Z,3.08
2022-09-09T19:15:19.066Z,3.40
2022-09-09T19:17:46.128Z,2.42
2022-09-09T19:20:13.127Z,2.58
2022-09-09T19:22:40.775Z,2.65
2022-09-09T19:25:07.911Z,3.80
2022-09-09T19:27:37.243Z,3.90
2022-09-09T19:30:05.017Z,3.67
2022-09-09T19:35:19.649Z,3.08
2022-09-09T19:37:48.845Z,3.50
2022-09-09T19:40:15.979Z,3.58
2022-09-09T19:42:43.430Z,2.70
2022-09-09T19:45:10.555Z,3.00
2022-09-09T19:47:40.104Z,3.05
2022-09-09T19:50:08.144Z,2.65
2022-09-09T19:52:35.235Z,3.63
2022-09-09T19:55:05.586Z,3.88
2022-09-09T19:57:35.435Z,4.70
2022-09-09T20:00:03.216Z,4.20
2022-09-09T20:02:30.272Z,4.78
2022-09-09T20:04:58.465Z,3.95
2022-09-09T20:07:25.520Z,3.85
2022-09-09T20:09:52.567Z,3.25
2022-09-09T20:12:20.027Z,3.33
2022-09-09T20:14:47.074Z,3.33
2022-09-09T20:17:14.420Z,3.10
2022-09-09T20:19:42.171Z,3.05
2022-09-09T20:22:11.637Z,3.90
2022-09-09T20:24:43.188Z,3.10
2022-09-09T20:27:10.742Z,2.70
2022-09-09T20:29:42.315Z,2.83
2022-09-09T20:32:09.765Z,3.00
2022-09-09T20:34:39.471Z,2.70
2022-09-09T20:37:06.836Z,2.80
2022-09-09T20:39:34.049Z,3.38
2022-09-09T20:42:01.418Z,3.20
2022-09-09T20:44:28.486Z,3.13
2022-09-09T20:46:56.439Z,3.13
2022-09-09T20:49:23.975Z,3.17
2022-09-09T20:51:52.229Z,3.60
2022-09-09T20:54:26.543Z,3.20
2022-09-09T20:56:54.897Z,3.05
2022-09-09T20:59:26.953Z,2.83
2022-09-09T21:01:55.419Z,3.92
2022-09-09T21:04:25.632Z,4.05
2022-09-09T21:06:52.779Z,4.10
2022-09-09T21:09:21.500Z,5.93
2022-09-09T21:11:48.960Z,6.28
2022-09-09T21:14:16.188Z,7.20
2022-09-09T21:16:46.072Z,6.85
2022-09-09T21:19:13.370Z,6.75
2022-09-09T21:21:49.681Z,6.10
2022-09-09T21:24:17.513Z,4.90
2022-09-09T21:26:44.932Z,4.00
2022-09-09T21:29:12.168Z,4.75
2022-09-09T21:31:39.575Z,4.72
2022-09-09T21:34:08.962Z,5.82
2022-09-09T21:36:38.817Z,5.45
2022-09-09T21:39:06.638Z,3.70
2022-09-09T21:41:36.124Z,4.55
2022-09-09T21:44:03.828Z,3.72
2022-09-09T21:46:31.601Z,3.25
2022-09-09T21:48:59.339Z,3.25
2022-09-09T21:51:26.647Z,2.75
2022-09-09T21:53:57.434Z,2.80
2022-09-09T21:56:24.599Z,2.25
2022-09-09T21:58:58.669Z,2.40
2022-09-09T22:01:26.343Z,2.33
2022-09-09T22:03:54.142Z,2.83
2022-09-09T22:06:21.489Z,2.38
2022-09-09T22:08:51.062Z,2.60
2022-09-09T22:11:22.145Z,2.47
2022-09-09T22:13:49.989Z,2.67
2022-09-09T22:16:19.184Z,3.08
2022-09-09T22:18:55.490Z,3.95
2022-09-09T22:21:23.829Z,3.20
2022-09-09T22:23:56.509Z,3.55
2022-09-09T22:26:25.571Z,3.35
2022-09-09T22:28:52.733Z,3.00
2022-09-09T22:31:23.447Z,3.47
2022-09-09T22:33:51.389Z,3.53
2022-09-09T22:36:21.698Z,2.60
2022-09-09T22:38:50.160Z,2.45
2022-09-09T22:41:20.479Z,2.65
2022-09-09T22:43:52.371Z,2.08
2022-09-09T22:46:22.515Z,2.13
2022-09-09T22:48:54.514Z,2.50
2022-09-09T22:51:21.820Z,2.80
2022-09-09T22:53:51.521Z,4.85
2022-09-09T22:56:19.769Z,5.50
2022-09-09T22:58:52.934Z,5.05
2022-09-09T23:01:20.697Z,2.80
2022-09-09T23:03:50.334Z,3.00
2022-09-09T23:06:22.672Z,3.05
2022-09-09T23:08:57.836Z,2.75
2022-09-09T23:11:30.463Z,3.55
2022-09-09T23:14:01.665Z,2.92
2022-09-09T23:16:43.198Z,2.63
2022-09-09T23:19:16.272Z,2.00
2022-09-09T23:21:48.826Z,2.17
2022-09-09T23:24:18.451Z,2.47
2022-09-09T23:26:45.915Z,3.35
2022-09-09T23:29:16.029Z,2.40
2022-09-09T23:31:45.917Z,3.55
2022-09-09T23:34:13.763Z,3.95
2022-09-09T23:36:41.253Z,3.30
2022-09-09T23:39:09.497Z,2.85
2022-09-09T23:41:38.821Z,2.30
2022-09-09T23:44:11.239Z,2.10
2022-09-09T23:46:39.010Z,2.35
2022-09-09T23:49:06.474Z,1.60
2022-09-09T23:51:33.567Z,1.80
2022-09-09T23:54:02.076Z,1.70
2022-09-09T23:56:35.435Z,2.35
2022-09-09T23:59:06.360Z,3.30
